Cowlington, Oklahoma
Current Conditions -  °F | °C
As of 6:15 AM on Sunday 23 Nov 2014 (Local Time) from KGZL Reporting Station
Overcast Overcast  
Wind Chill: 57°   Ceiling: 1800
Heat Index: 57°   Visibility: 10mi
Dew Point: 57°   Wind: 7mph
Humidity: 100%   Direction: 160°SSE
Pressure: 29.58"   Gusts: NA
Location:  35.2597°N, 94.8795°W
Report Text: KGZL 231215Z AUTO 16006KT 10SM BKN018 BKN025 OVC033 14/14 A2958 RMK AO2
Loading
Personal Weather Stations






























Interactive Weather Map New forecast layout! Learn more

10-Day Weather Forecast

Advertisements
Track Severe Weather on mobile